sensor_id;sensor_type;location;lat;lon;timestamp;pressure;altitude;pressure_sealevel;temperature;humidity
16806;BME280;8520;50.102;20.010;2023-04-22T00:00:30;98113.84;;;14.04;47.76
16806;BME280;8520;50.102;20.010;2023-04-22T00:02:58;98103.00;;;14.01;47.52
16806;BME280;8520;50.102;20.010;2023-04-22T00:05:29;98104.03;;;13.81;47.00
16806;BME280;8520;50.102;20.010;2023-04-22T00:07:57;98103.78;;;13.68;47.27
16806;BME280;8520;50.102;20.010;2023-04-22T00:10:25;98101.28;;;13.64;47.79
16806;BME280;8520;50.102;20.010;2023-04-22T00:12:54;98108.34;;;13.82;47.99
16806;BME280;8520;50.102;20.010;2023-04-22T00:15:22;98101.78;;;13.57;48.33
16806;BME280;8520;50.102;20.010;2023-04-22T00:17:51;98109.09;;;13.55;49.23
16806;BME280;8520;50.102;20.010;2023-04-22T00:20:20;98108.84;;;13.64;48.36
16806;BME280;8520;50.102;20.010;2023-04-22T00:22:49;98105.06;;;13.72;48.62
16806;BME280;8520;50.102;20.010;2023-04-22T00:25:18;98098.25;;;13.51;47.96
16806;BME280;8520;50.102;20.010;2023-04-22T00:27:46;98096.75;;;13.50;48.71
16806;BME280;8520;50.102;20.010;2023-04-22T00:30:14;98100.53;;;13.58;49.03
16806;BME280;8520;50.102;20.010;2023-04-22T00:32:42;98093.22;;;13.55;48.71
16806;BME280;8520;50.102;20.010;2023-04-22T00:35:10;98095.75;;;13.64;48.85
16806;BME280;8520;50.102;20.010;2023-04-22T00:37:38;98094.97;;;13.58;49.23
16806;BME280;8520;50.102;20.010;2023-04-22T00:40:09;98102.28;;;13.50;49.90
16806;BME280;8520;50.102;20.010;2023-04-22T00:42:38;98104.03;;;13.31;49.98
16806;BME280;8520;50.102;20.010;2023-04-22T00:45:10;98100.91;;;12.89;50.97
16806;BME280;8520;50.102;20.010;2023-04-22T00:47:38;98097.97;;;13.21;50.68
16806;BME280;8520;50.102;20.010;2023-04-22T00:50:07;98095.69;;;13.19;50.05
16806;BME280;8520;50.102;20.010;2023-04-22T00:52:35;98097.47;;;13.22;50.24
16806;BME280;8520;50.102;20.010;2023-04-22T00:55:04;98091.16;;;13.22;50.25
16806;BME280;8520;50.102;20.010;2023-04-22T00:57:34;98089.91;;;13.17;50.31
16806;BME280;8520;50.102;20.010;2023-04-22T01:00:03;98088.38;;;13.05;51.12
16806;BME280;8520;50.102;20.010;2023-04-22T01:02:32;98101.19;;;12.97;51.78
16806;BME280;8520;50.102;20.010;2023-04-22T01:05:00;98098.91;;;12.84;51.61
16806;BME280;8520;50.102;20.010;2023-04-22T01:07:29;98099.38;;;12.77;51.10
16806;BME280;8520;50.102;20.010;2023-04-22T01:09:58;98098.59;;;12.65;51.26
16806;BME280;8520;50.102;20.010;2023-04-22T01:12:26;98099.81;;;12.59;51.96
16806;BME280;8520;50.102;20.010;2023-04-22T01:14:55;98093.25;;;12.45;52.26
16806;BME280;8520;50.102;20.010;2023-04-22T01:17:24;98099.28;;;12.01;52.67
16806;BME280;8520;50.102;20.010;2023-04-22T01:19:52;98079.09;;;12.32;51.88
16806;BME280;8520;50.102;20.010;2023-04-22T01:22:21;98097.81;;;12.54;52.01
16806;BME280;8520;50.102;20.010;2023-04-22T01:24:54;98099.97;;;12.27;52.51
16806;BME280;8520;50.102;20.010;2023-04-22T01:27:22;98093.53;;;12.10;52.03
16806;BME280;8520;50.102;20.010;2023-04-22T01:29:50;98099.84;;;12.16;52.17
16806;BME280;8520;50.102;20.010;2023-04-22T01:32:19;98106.47;;;11.87;53.95
16806;BME280;8520;50.102;20.010;2023-04-22T01:34:47;98097.66;;;12.20;53.40
16806;BME280;8520;50.102;20.010;2023-04-22T01:37:17;98110.94;;;11.79;54.44
16806;BME280;8520;50.102;20.010;2023-04-22T01:39:46;98098.94;;;11.88;53.87
16806;BME280;8520;50.102;20.010;2023-04-22T01:42:15;98102.34;;;12.08;53.23
16806;BME280;8520;50.102;20.010;2023-04-22T01:44:44;98105.25;;;12.31;52.54
16806;BME280;8520;50.102;20.010;2023-04-22T01:47:13;98110.28;;;12.32;52.20
16806;BME280;8520;50.102;20.010;2023-04-22T01:49:41;98107.75;;;12.34;51.95
16806;BME280;8520;50.102;20.010;2023-04-22T01:52:11;98104.78;;;12.38;52.42
16806;BME280;8520;50.102;20.010;2023-04-22T01:54:39;98095.22;;;12.39;52.19
16806;BME280;8520;50.102;20.010;2023-04-22T01:57:11;98103.84;;;12.09;52.42
16806;BME280;8520;50.102;20.010;2023-04-22T01:59:43;98093.53;;;12.10;52.26
16806;BME280;8520;50.102;20.010;2023-04-22T02:02:13;98094.44;;;11.90;52.34
16806;BME280;8520;50.102;20.010;2023-04-22T02:04:41;98096.25;;;11.99;52.58
16806;BME280;8520;50.102;20.010;2023-04-22T02:07:10;98091.53;;;12.10;52.30
16806;BME280;8520;50.102;20.010;2023-04-22T02:09:38;98096.66;;;12.23;51.63
16806;BME280;8520;50.102;20.010;2023-04-22T02:12:06;98088.91;;;12.33;51.48
16806;BME280;8520;50.102;20.010;2023-04-22T02:14:34;98097.19;;;12.27;52.21
16806;BME280;8520;50.102;20.010;2023-04-22T02:17:04;98113.69;;;10.69;55.21
16806;BME280;8520;50.102;20.010;2023-04-22T02:19:32;98098.13;;;10.46;55.29
16806;BME280;8520;50.102;20.010;2023-04-22T02:22:00;98098.44;;;10.74;54.51
16806;BME280;8520;50.102;20.010;2023-04-22T02:24:28;98096.53;;;10.39;55.96
16806;BME280;8520;50.102;20.010;2023-04-22T02:26:57;98096.69;;;9.95;57.93
16806;BME280;8520;50.102;20.010;2023-04-22T02:29:26;98098.91;;;9.91;57.83
16806;BME280;8520;50.102;20.010;2023-04-22T02:31:57;98104.78;;;9.49;59.07
16806;BME280;8520;50.102;20.010;2023-04-22T02:34:27;98100.69;;;9.44;58.59
16806;BME280;8520;50.102;20.010;2023-04-22T02:36:55;98096.88;;;9.71;57.83
16806;BME280;8520;50.102;20.010;2023-04-22T02:39:24;98092.78;;;9.67;58.02
16806;BME280;8520;50.102;20.010;2023-04-22T02:41:52;98090.88;;;9.58;58.78
16806;BME280;8520;50.102;20.010;2023-04-22T02:44:20;98092.44;;;9.44;59.66
16806;BME280;8520;50.102;20.010;2023-04-22T02:46:48;98098.50;;;9.19;60.29
16806;BME280;8520;50.102;20.010;2023-04-22T02:49:16;98095.66;;;8.98;60.51
16806;BME280;8520;50.102;20.010;2023-04-22T02:51:46;98094.22;;;9.03;60.17
16806;BME280;8520;50.102;20.010;2023-04-22T02:54:14;98090.88;;;8.84;61.49
16806;BME280;8520;50.102;20.010;2023-04-22T02:56:42;98089.47;;;8.89;61.84
16806;BME280;8520;50.102;20.010;2023-04-22T02:59:10;98098.38;;;8.84;62.54
16806;BME280;8520;50.102;20.010;2023-04-22T03:01:38;98100.63;;;8.71;62.29
16806;BME280;8520;50.102;20.010;2023-04-22T03:04:10;98095.06;;;8.80;61.96
16806;BME280;8520;50.102;20.010;2023-04-22T03:06:40;98097.91;;;9.00;61.33
16806;BME280;8520;50.102;20.010;2023-04-22T03:09:09;98089.31;;;9.22;60.76
16806;BME280;8520;50.102;20.010;2023-04-22T03:11:38;98094.13;;;9.57;59.96
16806;BME280;8520;50.102;20.010;2023-04-22T03:14:06;98091.09;;;9.54;59.00
16806;BME280;8520;50.102;20.010;2023-04-22T03:16:34;98098.41;;;9.58;59.02
16806;BME280;8520;50.102;20.010;2023-04-22T03:19:04;98101.88;;;9.73;58.31
16806;BME280;8520;50.102;20.010;2023-04-22T03:21:32;98098.72;;;10.56;56.62
16806;BME280;8520;50.102;20.010;2023-04-22T03:24:00;98096.50;;;10.60;55.81
16806;BME280;8520;50.102;20.010;2023-04-22T03:26:33;98098.50;;;10.59;56.18
16806;BME280;8520;50.102;20.010;2023-04-22T03:29:02;98095.91;;;10.71;55.71
16806;BME280;8520;50.102;20.010;2023-04-22T03:31:30;98096.53;;;10.80;55.76
16806;BME280;8520;50.102;20.010;2023-04-22T03:33:58;98100.66;;;10.50;56.22
16806;BME280;8520;50.102;20.010;2023-04-22T03:36:29;98096.16;;;9.91;57.78
16806;BME280;8520;50.102;20.010;2023-04-22T03:38:57;98095.38;;;9.91;57.78
16806;BME280;8520;50.102;20.010;2023-04-22T03:41:27;98107.78;;;9.80;57.70
16806;BME280;8520;50.102;20.010;2023-04-22T03:43:56;98102.53;;;9.82;57.40
16806;BME280;8520;50.102;20.010;2023-04-22T03:46:28;98102.84;;;9.70;58.05
16806;BME280;8520;50.102;20.010;2023-04-22T03:49:10;98108.56;;;9.22;58.48
16806;BME280;8520;50.102;20.010;2023-04-22T03:51:39;98110.97;;;9.29;59.17
16806;BME280;8520;50.102;20.010;2023-04-22T03:54:11;98108.41;;;9.25;59.31
16806;BME280;8520;50.102;20.010;2023-04-22T03:56:46;98104.91;;;8.86;60.63
16806;BME280;8520;50.102;20.010;2023-04-22T03:59:16;98104.31;;;8.67;60.89
16806;BME280;8520;50.102;20.010;2023-04-22T04:01:45;98111.16;;;8.72;60.68
16806;BME280;8520;50.102;20.010;2023-04-22T04:04:17;98110.97;;;8.76;60.37
16806;BME280;8520;50.102;20.010;2023-04-22T04:06:51;98107.50;;;9.05;60.15
16806;BME280;8520;50.102;20.010;2023-04-22T04:09:19;98100.97;;;9.61;59.16
16806;BME280;8520;50.102;20.010;2023-04-22T04:11:48;98103.78;;;10.17;57.91
16806;BME280;8520;50.102;20.010;2023-04-22T04:14:18;98113.00;;;10.75;56.37
16806;BME280;8520;50.102;20.010;2023-04-22T04:16:48;98110.13;;;10.43;56.99
16806;BME280;8520;50.102;20.010;2023-04-22T04:19:26;98124.78;;;8.90;60.75
16806;BME280;8520;50.102;20.010;2023-04-22T04:21:54;98125.25;;;9.04;60.88
16806;BME280;8520;50.102;20.010;2023-04-22T04:24:24;98117.28;;;8.91;61.16
16806;BME280;8520;50.102;20.010;2023-04-22T04:27:00;98116.94;;;8.74;60.97
16806;BME280;8520;50.102;20.010;2023-04-22T04:29:37;98111.09;;;8.81;61.63
16806;BME280;8520;50.102;20.010;2023-04-22T04:32:11;98124.72;;;8.37;63.56
16806;BME280;8520;50.102;20.010;2023-04-22T04:34:40;98123.88;;;8.22;64.56
16806;BME280;8520;50.102;20.010;2023-04-22T04:37:10;98128.69;;;8.12;64.82
16806;BME280;8520;50.102;20.010;2023-04-22T04:40:01;98128.72;;;8.03;64.72
16806;BME280;8520;50.102;20.010;2023-04-22T04:42:41;98129.50;;;8.27;63.68
16806;BME280;8520;50.102;20.010;2023-04-22T04:45:16;98123.41;;;8.86;62.00
16806;BME280;8520;50.102;20.010;2023-04-22T04:47:46;98125.28;;;8.65;62.31
16806;BME280;8520;50.102;20.010;2023-04-22T04:50:21;98117.59;;;9.37;60.33
16806;BME280;8520;50.102;20.010;2023-04-22T04:52:49;98120.31;;;9.81;59.89
16806;BME280;8520;50.102;20.010;2023-04-22T04:55:24;98115.63;;;10.63;58.23
16806;BME280;8520;50.102;20.010;2023-04-22T04:57:53;98116.34;;;11.05;58.26
16806;BME280;8520;50.102;20.010;2023-04-22T05:00:22;98125.38;;;11.31;58.19
16806;BME280;8520;50.102;20.010;2023-04-22T05:02:51;98124.84;;;11.53;58.39
16806;BME280;8520;50.102;20.010;2023-04-22T05:05:19;98120.16;;;11.70;58.61
16806;BME280;8520;50.102;20.010;2023-04-22T05:07:48;98123.56;;;11.86;58.87
16806;BME280;8520;50.102;20.010;2023-04-22T05:10:17;98125.13;;;11.92;59.14
16806;BME280;8520;50.102;20.010;2023-04-22T05:12:46;98121.16;;;11.99;59.07
16806;BME280;8520;50.102;20.010;2023-04-22T05:15:19;98127.72;;;12.07;58.81
16806;BME280;8520;50.102;20.010;2023-04-22T05:17:49;98115.75;;;12.21;58.60
16806;BME280;8520;50.102;20.010;2023-04-22T05:20:17;98128.56;;;12.19;58.71
16806;BME280;8520;50.102;20.010;2023-04-22T05:22:45;98127.78;;;12.18;58.40
16806;BME280;8520;50.102;20.010;2023-04-22T05:25:14;98133.25;;;12.07;58.25
16806;BME280;8520;50.102;20.010;2023-04-22T05:27:51;98131.81;;;12.17;57.76
16806;BME280;8520;50.102;20.010;2023-04-22T05:30:20;98130.84;;;12.20;57.34
16806;BME280;8520;50.102;20.010;2023-04-22T05:32:50;98132.28;;;12.16;57.16
16806;BME280;8520;50.102;20.010;2023-04-22T05:35:18;98129.34;;;12.25;56.77
16806;BME280;8520;50.102;20.010;2023-04-22T05:37:46;98134.28;;;12.09;57.38
16806;BME280;8520;50.102;20.010;2023-04-22T05:40:14;98139.34;;;11.79;58.73
16806;BME280;8520;50.102;20.010;2023-04-22T05:42:42;98139.53;;;11.70;58.92
16806;BME280;8520;50.102;20.010;2023-04-22T05:45:11;98132.41;;;11.90;58.05
16806;BME280;8520;50.102;20.010;2023-04-22T05:47:39;98136.56;;;12.11;57.66
16806;BME280;8520;50.102;20.010;2023-04-22T05:50:09;98131.22;;;12.45;56.54
16806;BME280;8520;50.102;20.010;2023-04-22T05:52:53;98133.91;;;11.91;57.66
16806;BME280;8520;50.102;20.010;2023-04-22T05:55:21;98141.91;;;11.83;58.77
16806;BME280;8520;50.102;20.010;2023-04-22T05:57:49;98134.78;;;12.14;58.45
16806;BME280;8520;50.102;20.010;2023-04-22T06:00:35;98131.78;;;12.54;57.17
16806;BME280;8520;50.102;20.010;2023-04-22T06:03:23;98127.53;;;12.64;57.37
16806;BME280;8520;50.102;20.010;2023-04-22T06:05:53;98129.84;;;12.72;57.75
16806;BME280;8520;50.102;20.010;2023-04-22T06:08:22;98129.38;;;12.84;57.28
16806;BME280;8520;50.102;20.010;2023-04-22T06:10:50;98129.47;;;13.18;56.77
16806;BME280;8520;50.102;20.010;2023-04-22T06:13:19;98137.25;;;13.08;56.44
16806;BME280;8520;50.102;20.010;2023-04-22T06:15:47;98132.22;;;13.23;57.04
16806;BME280;8520;50.102;20.010;2023-04-22T06:18:16;98128.25;;;13.58;56.24
16806;BME280;8520;50.102;20.010;2023-04-22T06:20:44;98126.97;;;13.54;55.85
16806;BME280;8520;50.102;20.010;2023-04-22T06:23:14;98127.72;;;13.88;55.21
16806;BME280;8520;50.102;20.010;2023-04-22T06:25:42;98134.53;;;13.87;55.04
16806;BME280;8520;50.102;20.010;2023-04-22T06:28:10;98136.06;;;13.93;55.11
16806;BME280;8520;50.102;20.010;2023-04-22T06:30:39;98140.81;;;14.04;54.59
16806;BME280;8520;50.102;20.010;2023-04-22T06:33:07;98141.78;;;14.29;54.31
16806;BME280;8520;50.102;20.010;2023-04-22T06:35:36;98139.78;;;14.24;54.50
16806;BME280;8520;50.102;20.010;2023-04-22T06:38:04;98132.91;;;14.47;54.21
16806;BME280;8520;50.102;20.010;2023-04-22T06:40:41;98140.44;;;14.58;52.79
16806;BME280;8520;50.102;20.010;2023-04-22T06:43:20;98136.94;;;14.46;53.00
16806;BME280;8520;50.102;20.010;2023-04-22T06:46:08;98138.69;;;14.60;51.98
16806;BME280;8520;50.102;20.010;2023-04-22T06:48:55;98132.25;;;14.88;51.51
16806;BME280;8520;50.102;20.010;2023-04-22T06:51:44;98145.16;;;15.27;50.51
16806;BME280;8520;50.102;20.010;2023-04-22T06:54:12;98139.34;;;14.83;50.90
16806;BME280;8520;50.102;20.010;2023-04-22T06:56:41;98137.63;;;15.21;50.24
16806;BME280;8520;50.102;20.010;2023-04-22T06:59:10;98148.75;;;15.57;50.12
16806;BME280;8520;50.102;20.010;2023-04-22T07:01:38;98143.84;;;15.39;50.23
16806;BME280;8520;50.102;20.010;2023-04-22T07:04:06;98143.88;;;15.99;49.74
16806;BME280;8520;50.102;20.010;2023-04-22T07:06:35;98145.53;;;16.13;48.75
16806;BME280;8520;50.102;20.010;2023-04-22T07:09:03;98136.63;;;16.15;48.43
16806;BME280;8520;50.102;20.010;2023-04-22T07:11:31;98142.38;;;16.22;47.79
16806;BME280;8520;50.102;20.010;2023-04-22T07:14:09;98142.03;;;16.07;47.27
16806;BME280;8520;50.102;20.010;2023-04-22T07:16:37;98142.38;;;16.22;47.23
16806;BME280;8520;50.102;20.010;2023-04-22T07:19:05;98146.16;;;16.49;46.70
16806;BME280;8520;50.102;20.010;2023-04-22T07:21:33;98149.78;;;16.63;46.37
16806;BME280;8520;50.102;20.010;2023-04-22T07:24:02;98149.16;;;16.76;46.44
16806;BME280;8520;50.102;20.010;2023-04-22T07:26:30;98138.63;;;17.06;45.72
16806;BME280;8520;50.102;20.010;2023-04-22T07:29:00;98145.78;;;17.21;45.43
16806;BME280;8520;50.102;20.010;2023-04-22T07:31:29;98143.34;;;17.49;45.39
16806;BME280;8520;50.102;20.010;2023-04-22T07:33:57;98146.66;;;17.66;45.07
16806;BME280;8520;50.102;20.010;2023-04-22T07:36:25;98144.09;;;17.68;44.99
16806;BME280;8520;50.102;20.010;2023-04-22T07:38:53;98150.44;;;17.82;44.49
16806;BME280;8520;50.102;20.010;2023-04-22T07:41:22;98143.91;;;17.80;44.14
16806;BME280;8520;50.102;20.010;2023-04-22T07:43:50;98144.38;;;17.97;43.80
16806;BME280;8520;50.102;20.010;2023-04-22T07:46:18;98143.75;;;18.17;43.65
16806;BME280;8520;50.102;20.010;2023-04-22T07:48:48;98144.72;;;18.20;44.03
16806;BME280;8520;50.102;20.010;2023-04-22T07:51:16;98153.56;;;18.50;43.46
16806;BME280;8520;50.102;20.010;2023-04-22T07:53:44;98146.91;;;18.67;43.46
16806;BME280;8520;50.102;20.010;2023-04-22T07:56:12;98143.69;;;18.63;43.50
16806;BME280;8520;50.102;20.010;2023-04-22T07:58:40;98142.06;;;18.80;43.09
16806;BME280;8520;50.102;20.010;2023-04-22T08:01:08;98140.13;;;18.75;42.84
16806;BME280;8520;50.102;20.010;2023-04-22T08:03:36;98149.22;;;19.02;42.54
16806;BME280;8520;50.102;20.010;2023-04-22T08:06:06;98141.97;;;19.20;42.72
16806;BME280;8520;50.102;20.010;2023-04-22T08:08:34;98152.19;;;19.17;43.00
16806;BME280;8520;50.102;20.010;2023-04-22T08:11:03;98150.88;;;19.32;42.39
16806;BME280;8520;50.102;20.010;2023-04-22T08:13:31;98141.25;;;19.40;41.74
16806;BME280;8520;50.102;20.010;2023-04-22T08:15:59;98144.16;;;19.48;41.38
16806;BME280;8520;50.102;20.010;2023-04-22T08:18:28;98149.41;;;19.52;40.45
16806;BME280;8520;50.102;20.010;2023-04-22T08:20:57;98152.41;;;19.54;39.98
16806;BME280;8520;50.102;20.010;2023-04-22T08:23:26;98157.00;;;19.64;39.85
16806;BME280;8520;50.102;20.010;2023-04-22T08:25:54;98149.38;;;19.86;39.19
16806;BME280;8520;50.102;20.010;2023-04-22T08:28:22;98156.22;;;19.43;40.19
16806;BME280;8520;50.102;20.010;2023-04-22T08:30:51;98149.28;;;19.99;39.69
16806;BME280;8520;50.102;20.010;2023-04-22T08:33:19;98145.63;;;20.12;39.57
16806;BME280;8520;50.102;20.010;2023-04-22T08:35:47;98152.56;;;20.32;38.85
16806;BME280;8520;50.102;20.010;2023-04-22T08:38:15;98156.84;;;20.33;38.28
16806;BME280;8520;50.102;20.010;2023-04-22T08:40:45;98157.84;;;20.43;38.46
16806;BME280;8520;50.102;20.010;2023-04-22T08:43:13;98149.94;;;20.34;39.08
16806;BME280;8520;50.102;20.010;2023-04-22T08:45:41;98153.88;;;20.38;38.90
16806;BME280;8520;50.102;20.010;2023-04-22T08:48:11;98146.69;;;20.50;36.89
16806;BME280;8520;50.102;20.010;2023-04-22T08:50:39;98145.16;;;20.78;37.11
16806;BME280;8520;50.102;20.010;2023-04-22T08:53:08;98153.09;;;20.58;38.34
16806;BME280;8520;50.102;20.010;2023-04-22T08:55:36;98150.84;;;21.01;37.86
16806;BME280;8520;50.102;20.010;2023-04-22T08:58:06;98149.44;;;21.15;37.24
16806;BME280;8520;50.102;20.010;2023-04-22T09:00:34;98151.31;;;21.20;38.42
16806;BME280;8520;50.102;20.010;2023-04-22T09:03:05;98156.09;;;20.97;37.71
16806;BME280;8520;50.102;20.010;2023-04-22T09:05:35;98151.22;;;20.97;37.33
16806;BME280;8520;50.102;20.010;2023-04-22T09:08:04;98153.94;;;21.18;36.69
16806;BME280;8520;50.102;20.010;2023-04-22T09:10:35;98143.56;;;20.98;35.18
16806;BME280;8520;50.102;20.010;2023-04-22T09:13:06;98142.41;;;20.93;34.63
16806;BME280;8520;50.102;20.010;2023-04-22T09:15:35;98149.75;;;21.04;34.81
16806;BME280;8520;50.102;20.010;2023-04-22T09:18:03;98144.09;;;21.32;34.63
16806;BME280;8520;50.102;20.010;2023-04-22T09:20:31;98141.47;;;21.34;34.73
16806;BME280;8520;50.102;20.010;2023-04-22T09:23:03;98147.06;;;21.27;34.72
16806;BME280;8520;50.102;20.010;2023-04-22T09:25:32;98135.63;;;21.25;35.14
16806;BME280;8520;50.102;20.010;2023-04-22T09:28:01;98133.66;;;20.61;35.18
16806;BME280;8520;50.102;20.010;2023-04-22T09:30:32;98138.09;;;20.92;35.48
16806;BME280;8520;50.102;20.010;2023-04-22T09:33:02;98140.88;;;21.28;34.70
16806;BME280;8520;50.102;20.010;2023-04-22T09:35:32;98132.50;;;20.92;34.52
16806;BME280;8520;50.102;20.010;2023-04-22T09:38:02;98133.81;;;20.91;34.81
16806;BME280;8520;50.102;20.010;2023-04-22T09:40:32;98124.22;;;21.23;34.26
16806;BME280;8520;50.102;20.010;2023-04-22T09:43:02;98129.66;;;21.28;34.73
16806;BME280;8520;50.102;20.010;2023-04-22T09:45:33;98120.84;;;21.24;34.75
16806;BME280;8520;50.102;20.010;2023-04-22T09:48:07;98117.72;;;21.66;34.87
16806;BME280;8520;50.102;20.010;2023-04-22T09:50:36;98112.66;;;21.34;34.46
16806;BME280;8520;50.102;20.010;2023-04-22T09:53:06;98118.41;;;21.28;34.79
16806;BME280;8520;50.102;20.010;2023-04-22T09:55:37;98112.09;;;21.43;33.82
16806;BME280;8520;50.102;20.010;2023-04-22T09:58:09;98116.50;;;21.08;33.42
16806;BME280;8520;50.102;20.010;2023-04-22T10:00:45;98110.41;;;21.48;33.78
16806;BME280;8520;50.102;20.010;2023-04-22T10:03:15;98113.25;;;21.70;33.14
16806;BME280;8520;50.102;20.010;2023-04-22T10:05:44;98107.66;;;21.86;33.26
16806;BME280;8520;50.102;20.010;2023-04-22T10:08:13;98105.19;;;21.82;32.68
16806;BME280;8520;50.102;20.010;2023-04-22T10:10:44;98102.25;;;21.95;32.88
16806;BME280;8520;50.102;20.010;2023-04-22T10:13:13;98114.38;;;21.60;33.14
16806;BME280;8520;50.102;20.010;2023-04-22T10:15:46;98108.38;;;21.56;33.12
16806;BME280;8520;50.102;20.010;2023-04-22T10:18:19;98102.03;;;21.70;32.93
16806;BME280;8520;50.102;20.010;2023-04-22T10:20:49;98096.97;;;21.84;33.12
16806;BME280;8520;50.102;20.010;2023-04-22T10:23:20;98090.41;;;21.82;34.03
16806;BME280;8520;50.102;20.010;2023-04-22T10:25:52;98098.88;;;21.89;33.82
16806;BME280;8520;50.102;20.010;2023-04-22T10:28:22;98101.28;;;21.70;33.68
16806;BME280;8520;50.102;20.010;2023-04-22T10:30:52;98088.75;;;21.86;34.46
16806;BME280;8520;50.102;20.010;2023-04-22T10:33:37;98095.09;;;22.10;34.38
16806;BME280;8520;50.102;20.010;2023-04-22T10:36:08;98088.34;;;22.20;33.91
16806;BME280;8520;50.102;20.010;2023-04-22T10:38:37;98083.84;;;22.10;33.58
16806;BME280;8520;50.102;20.010;2023-04-22T10:41:06;98093.78;;;20.91;34.59
16806;BME280;8520;50.102;20.010;2023-04-22T10:43:40;98080.88;;;21.69;33.52
16806;BME280;8520;50.102;20.010;2023-04-22T10:49:21;98080.69;;;21.90;33.57
16806;BME280;8520;50.102;20.010;2023-04-22T10:51:51;98079.72;;;22.18;33.67
16806;BME280;8520;50.102;20.010;2023-04-22T10:54:57;98075.25;;;21.62;33.01
16806;BME280;8520;50.102;20.010;2023-04-22T10:57:40;98079.00;;;20.46;34.66
16806;BME280;8520;50.102;20.010;2023-04-22T11:00:29;98071.78;;;20.58;34.90
16806;BME280;8520;50.102;20.010;2023-04-22T11:03:09;98074.44;;;21.31;34.96
16806;BME280;8520;50.102;20.010;2023-04-22T11:05:39;98071.69;;;21.84;34.35
16806;BME280;8520;50.102;20.010;2023-04-22T11:08:11;98061.38;;;22.02;33.95
16806;BME280;8520;50.102;20.010;2023-04-22T11:10:42;98069.22;;;22.26;33.92
16806;BME280;8520;50.102;20.010;2023-04-22T11:13:12;98071.47;;;22.13;34.32
16806;BME280;8520;50.102;20.010;2023-04-22T11:15:43;98071.78;;;22.40;34.07
16806;BME280;8520;50.102;20.010;2023-04-22T11:18:17;98064.16;;;22.33;34.07
16806;BME280;8520;50.102;20.010;2023-04-22T11:20:48;98066.13;;;22.55;33.92
16806;BME280;8520;50.102;20.010;2023-04-22T11:23:19;98060.53;;;22.95;33.94
16806;BME280;8520;50.102;20.010;2023-04-22T11:25:53;98059.91;;;23.04;33.32
16806;BME280;8520;50.102;20.010;2023-04-22T11:28:21;98055.00;;;23.12;33.96
16806;BME280;8520;50.102;20.010;2023-04-22T11:30:50;98041.69;;;22.80;33.79
16806;BME280;8520;50.102;20.010;2023-04-22T11:33:19;98050.69;;;23.11;34.28
16806;BME280;8520;50.102;20.010;2023-04-22T11:35:49;98039.03;;;22.82;34.47
16806;BME280;8520;50.102;20.010;2023-04-22T11:38:18;98047.38;;;20.82;36.34
16806;BME280;8520;50.102;20.010;2023-04-22T11:40:46;98047.13;;;21.16;36.34
16806;BME280;8520;50.102;20.010;2023-04-22T11:43:14;98031.19;;;22.18;35.72
16806;BME280;8520;50.102;20.010;2023-04-22T11:45:44;98029.63;;;22.40;35.15
16806;BME280;8520;50.102;20.010;2023-04-22T11:48:13;98027.81;;;22.75;35.07
16806;BME280;8520;50.102;20.010;2023-04-22T11:50:42;98026.97;;;23.22;34.18
16806;BME280;8520;50.102;20.010;2023-04-22T11:53:16;98030.81;;;23.42;34.10
16806;BME280;8520;50.102;20.010;2023-04-22T11:55:46;98019.03;;;23.61;34.78
16806;BME280;8520;50.102;20.010;2023-04-22T11:58:18;98027.81;;;24.24;33.31
16806;BME280;8520;50.102;20.010;2023-04-22T12:00:48;98022.38;;;25.15;32.70
16806;BME280;8520;50.102;20.010;2023-04-22T12:03:18;98018.13;;;25.70;32.04
16806;BME280;8520;50.102;20.010;2023-04-22T12:05:51;98015.25;;;26.16;31.84
16806;BME280;8520;50.102;20.010;2023-04-22T12:08:22;98012.41;;;26.36;31.74
16806;BME280;8520;50.102;20.010;2023-04-22T12:10:53;98019.38;;;26.83;31.42
16806;BME280;8520;50.102;20.010;2023-04-22T12:13:23;98015.69;;;27.21;30.85
16806;BME280;8520;50.102;20.010;2023-04-22T12:15:53;98013.25;;;27.68;29.75
16806;BME280;8520;50.102;20.010;2023-04-22T12:18:27;98017.56;;;27.69;30.21
16806;BME280;8520;50.102;20.010;2023-04-22T12:20:58;98001.28;;;28.22;28.87
16806;BME280;8520;50.102;20.010;2023-04-22T12:23:28;98009.22;;;29.01;28.46
16806;BME280;8520;50.102;20.010;2023-04-22T12:25:56;98014.84;;;28.45;29.26
16806;BME280;8520;50.102;20.010;2023-04-22T12:28:24;98002.50;;;28.85;28.78
16806;BME280;8520;50.102;20.010;2023-04-22T12:30:52;98013.66;;;29.05;28.60
16806;BME280;8520;50.102;20.010;2023-04-22T12:33:20;98007.59;;;28.98;29.02
16806;BME280;8520;50.102;20.010;2023-04-22T12:35:48;98012.59;;;29.33;28.42
16806;BME280;8520;50.102;20.010;2023-04-22T12:38:18;98001.38;;;27.91;29.18
16806;BME280;8520;50.102;20.010;2023-04-22T12:40:48;97991.75;;;28.17;29.13
16806;BME280;8520;50.102;20.010;2023-04-22T12:43:18;98005.91;;;27.75;29.35
16806;BME280;8520;50.102;20.010;2023-04-22T12:45:51;98005.09;;;28.48;28.75
16806;BME280;8520;50.102;20.010;2023-04-22T12:48:19;97991.59;;;29.50;28.27
16806;BME280;8520;50.102;20.010;2023-04-22T12:50:47;98000.06;;;28.91;28.03
16806;BME280;8520;50.102;20.010;2023-04-22T12:53:15;97992.19;;;29.60;27.62
16806;BME280;8520;50.102;20.010;2023-04-22T12:55:44;97988.97;;;29.07;27.86
16806;BME280;8520;50.102;20.010;2023-04-22T12:58:13;97980.69;;;29.81;27.72
16806;BME280;8520;50.102;20.010;2023-04-22T13:00:41;97990.25;;;30.11;27.27
16806;BME280;8520;50.102;20.010;2023-04-22T13:03:09;97992.81;;;29.35;27.71
16806;BME280;8520;50.102;20.010;2023-04-22T13:05:38;97992.31;;;29.62;27.47
16806;BME280;8520;50.102;20.010;2023-04-22T13:08:06;97987.88;;;29.71;27.21
16806;BME280;8520;50.102;20.010;2023-04-22T13:10:34;97978.72;;;29.61;27.54
16806;BME280;8520;50.102;20.010;2023-04-22T13:13:02;97977.56;;;27.96;27.91
16806;BME280;8520;50.102;20.010;2023-04-22T13:15:46;97969.97;;;29.10;27.89
16806;BME280;8520;50.102;20.010;2023-04-22T13:18:20;97973.66;;;28.56;28.14
16806;BME280;8520;50.102;20.010;2023-04-22T13:20:48;97966.13;;;28.60;28.50